createdAt,value
2019-05-15T00:05:33.924Z,2.40
2019-05-15T00:11:36.088Z,2.42
2019-05-15T00:17:39.380Z,2.10
2019-05-15T00:23:42.044Z,2.62
2019-05-15T00:29:44.273Z,2.87
2019-05-15T00:35:48.594Z,3.02
2019-05-15T00:41:54.592Z,3.17
2019-05-15T00:47:54.700Z,2.90
2019-05-15T00:53:58.958Z,2.67
2019-05-15T01:00:01.097Z,2.55
2019-05-15T01:06:03.435Z,2.72
2019-05-15T01:12:05.709Z,2.87
2019-05-15T01:18:09.339Z,2.80
2019-05-15T01:24:11.877Z,2.85
2019-05-15T01:30:14.391Z,3.12
2019-05-15T01:36:19.104Z,3.45
2019-05-15T01:42:20.783Z,3.12
2019-05-15T01:48:23.019Z,3.42
2019-05-15T01:54:25.172Z,3.02
2019-05-15T02:00:28.227Z,2.98
2019-05-15T02:06:32.667Z,3.17
2019-05-15T02:12:34.823Z,3.17
2019-05-15T02:18:39.187Z,3.15
2019-05-15T02:24:41.140Z,3.08
2019-05-15T02:30:43.402Z,3.30
2019-05-15T02:36:49.227Z,3.00
2019-05-15T02:42:50.713Z,2.80
2019-05-15T02:48:52.860Z,3.00
2019-05-15T02:54:55.121Z,3.22
2019-05-15T03:00:59.332Z,3.85
2019-05-15T03:07:01.481Z,3.27
2019-05-15T03:13:03.619Z,3.05
2019-05-15T03:19:05.860Z,3.67
2019-05-15T03:25:10.588Z,3.60
2019-05-15T03:31:33.307Z,3.27
2019-05-15T03:37:21.505Z,3.15
2019-05-15T03:43:20.675Z,3.37
2019-05-15T03:49:22.799Z,3.87
2019-05-15T03:55:25.149Z,3.60
2019-05-15T04:01:37.560Z,3.25
2019-05-15T04:07:31.456Z,3.27
2019-05-15T04:13:33.594Z,3.83
2019-05-15T04:19:38.871Z,3.92
2019-05-15T04:25:40.341Z,3.80
2019-05-15T04:31:56.364Z,2.95
2019-05-15T04:37:49.415Z,3.58
2019-05-15T04:43:50.585Z,3.10
2019-05-15T04:49:52.748Z,3.15
2019-05-15T04:55:54.945Z,2.85
2019-05-15T05:02:16.227Z,3.10
2019-05-15T05:08:04.785Z,2.62
2019-05-15T05:14:08.456Z,3.30
2019-05-15T05:20:12.226Z,2.95
2019-05-15T05:26:14.546Z,3.20
2019-05-15T05:32:30.530Z,3.58
2019-05-15T05:38:21.350Z,4.05
2019-05-15T05:44:23.884Z,4.10
2019-05-15T05:50:38.492Z,3.90
2019-05-15T05:56:41.361Z,3.58
2019-05-15T06:02:48.143Z,4.33
2019-05-15T06:08:48.250Z,7.28
2019-05-15T06:14:50.469Z,4.33
2019-05-15T06:20:52.775Z,7.90
2019-05-15T06:26:54.960Z,4.60
2019-05-15T06:33:08.308Z,4.25
2019-05-15T06:39:01.167Z,3.95
2019-05-15T06:45:03.767Z,4.15
2019-05-15T06:51:05.963Z,4.47
2019-05-15T06:57:09.090Z,4.53
2019-05-15T07:03:21.562Z,4.60
2019-05-15T07:09:17.812Z,4.25
2019-05-15T07:15:19.527Z,4.20
2019-05-15T07:21:21.769Z,4.58
2019-05-15T07:27:24.083Z,4.03
2019-05-15T07:33:36.711Z,4.95
2019-05-15T07:39:30.754Z,5.60
2019-05-15T07:45:33.014Z,6.15
2019-05-15T07:51:35.236Z,6.72
2019-05-15T07:57:39.418Z,6.53
2019-05-15T08:03:55.344Z,8.70
2019-05-15T08:09:48.794Z,8.75
2019-05-15T08:15:51.194Z,9.00
2019-05-15T08:21:53.693Z,11.35
2019-05-15T08:27:55.899Z,5.70
2019-05-15T08:34:12.303Z,6.72
2019-05-15T08:40:02.455Z,7.00
2019-05-15T08:46:04.714Z,6.17
2019-05-15T08:52:09.995Z,6.08
2019-05-15T08:58:14.115Z,7.62
2019-05-15T09:04:27.965Z,7.45
2019-05-15T09:10:20.132Z,7.97
2019-05-15T09:16:22.719Z,6.62
2019-05-15T09:22:24.975Z,7.15
2019-05-15T09:28:29.571Z,6.95
2019-05-15T09:34:46.705Z,6.20
2019-05-15T09:40:45.211Z,5.45
2019-05-15T09:46:40.500Z,5.95
2019-05-15T09:52:42.771Z,6.12
2019-05-15T09:58:45.056Z,5.80
2019-05-15T10:04:49.596Z,5.15
2019-05-15T10:10:54.032Z,5.12
2019-05-15T10:16:58.390Z,4.58
2019-05-15T10:23:00.448Z,3.72
2019-05-15T10:29:02.711Z,4.15
2019-05-15T10:35:21.725Z,3.92
2019-05-15T10:41:15.020Z,4.50
2019-05-15T10:47:15.821Z,4.25
2019-05-15T10:53:18.983Z,3.22
2019-05-15T10:59:21.977Z,3.25
2019-05-15T11:05:38.431Z,3.10
2019-05-15T11:11:29.289Z,3.05
2019-05-15T11:17:31.837Z,3.22
2019-05-15T11:23:34.279Z,3.40
2019-05-15T11:29:38.184Z,3.37
2019-05-15T11:35:56.428Z,2.75
2019-05-15T11:41:44.468Z,3.40
2019-05-15T11:47:48.313Z,3.27
2019-05-15T11:53:50.619Z,4.40
2019-05-15T11:59:55.217Z,6.30
2019-05-15T12:05:59.628Z,7.10
2019-05-15T12:12:01.405Z,8.03
2019-05-15T12:18:04.800Z,7.45
2019-05-15T12:24:09.035Z,10.10
2019-05-15T12:30:13.959Z,10.25
2019-05-15T12:36:40.990Z,10.28
2019-05-15T13:00:32.694Z,8.23
2019-05-15T13:06:47.271Z,6.65
2019-05-15T13:12:54.304Z,7.17
2019-05-15T13:18:43.970Z,6.65
2019-05-15T13:24:48.273Z,7.35
2019-05-15T13:30:50.779Z,8.83
2019-05-15T13:36:53.108Z,6.90
2019-05-15T13:42:55.244Z,5.83
2019-05-15T13:48:59.553Z,5.62
2019-05-15T13:55:01.528Z,5.83
2019-05-15T14:01:03.908Z,5.62
2019-05-15T14:07:08.395Z,5.22
2019-05-15T14:13:10.595Z,5.42
2019-05-15T14:19:12.895Z,4.60
2019-05-15T14:25:15.057Z,4.22
2019-05-15T14:31:18.313Z,4.10
2019-05-15T14:37:20.638Z,3.25
2019-05-15T14:43:22.965Z,6.50
2019-05-15T14:49:25.338Z,5.30
2019-05-15T14:55:33.755Z,6.60
2019-05-15T15:01:31.996Z,9.73
2019-05-15T15:07:34.352Z,6.80
2019-05-15T15:13:38.174Z,3.80
2019-05-15T15:19:42.117Z,4.67
2019-05-15T15:25:44.881Z,5.47
2019-05-15T15:31:49.471Z,4.90
2019-05-15T15:37:52.420Z,3.37
2019-05-15T15:43:55.551Z,3.20
2019-05-15T15:49:58.537Z,3.35
2019-05-15T15:56:00.938Z,3.20
2019-05-15T16:02:03.296Z,2.58
2019-05-15T16:08:08.259Z,3.00
2019-05-15T16:14:10.458Z,2.80
2019-05-15T16:20:12.920Z,2.87
2019-05-15T16:26:15.099Z,2.95
2019-05-15T16:32:21.108Z,2.92
2019-05-15T16:38:21.314Z,3.40
2019-05-15T16:44:23.524Z,2.62
2019-05-15T16:50:25.719Z,7.40
2019-05-15T16:56:28.464Z,3.52
2019-05-15T17:02:32.217Z,2.45
2019-05-15T17:08:34.548Z,3.20
2019-05-15T17:14:39.082Z,2.95
2019-05-15T17:20:41.260Z,3.17
2019-05-15T17:26:43.479Z,3.67
2019-05-15T17:32:45.936Z,5.55
2019-05-15T17:38:48.842Z,5.15
2019-05-15T17:44:52.132Z,8.58
2019-05-15T17:50:54.804Z,5.50
2019-05-15T17:56:58.346Z,5.00
2019-05-15T18:03:01.152Z,31.05
2019-05-15T18:09:05.460Z,35.30
2019-05-15T18:15:09.013Z,26.87
2019-05-15T18:21:14.316Z,19.05
2019-05-15T18:27:18.581Z,8.90
2019-05-15T18:33:20.563Z,4.75
2019-05-15T18:39:22.805Z,4.00
2019-05-15T18:45:24.934Z,4.97
2019-05-15T18:51:28.178Z,40.70
2019-05-15T18:57:30.434Z,13.98
2019-05-15T19:03:33.141Z,7.10
2019-05-15T19:09:35.295Z,7.10
2019-05-15T19:15:38.136Z,5.37
2019-05-15T19:21:40.472Z,8.58
2019-05-15T19:27:44.156Z,22.17
2019-05-15T19:33:46.950Z,13.85
2019-05-15T19:39:51.481Z,16.42
2019-05-15T19:45:54.182Z,11.93
2019-05-15T19:51:58.112Z,7.03
2019-05-15T19:58:03.430Z,6.62
2019-05-15T20:04:08.227Z,8.15
2019-05-15T20:10:12.028Z,8.80
2019-05-15T20:16:20.671Z,8.10
2019-05-15T20:22:25.039Z,10.93
2019-05-15T20:28:28.615Z,10.32
2019-05-15T20:34:31.336Z,10.05
2019-05-15T20:40:34.516Z,10.32
2019-05-15T20:46:38.970Z,11.63
2019-05-15T20:52:40.977Z,12.95
2019-05-15T20:58:43.219Z,15.30
2019-05-15T21:04:45.389Z,14.50
2019-05-15T21:10:49.239Z,14.70
2019-05-15T21:16:55.694Z,15.08
2019-05-15T21:22:57.909Z,14.83
2019-05-15T21:29:01.822Z,14.78
2019-05-15T21:35:08.797Z,13.85
2019-05-15T21:41:11.709Z,13.10
2019-05-15T21:47:21.736Z,17.55
2019-05-15T21:53:23.932Z,18.02
2019-05-15T21:59:27.918Z,17.55
2019-05-15T22:05:30.155Z,20.17
2019-05-15T22:11:32.703Z,14.58
2019-05-15T22:17:38.611Z,19.92
2019-05-15T22:23:41.151Z,15.40
2019-05-15T22:29:43.540Z,16.97
2019-05-15T22:35:48.646Z,14.13
2019-05-15T22:41:49.919Z,16.80
2019-05-15T22:47:52.370Z,15.60
2019-05-15T22:53:54.543Z,16.00
2019-05-15T22:59:58.158Z,14.45
2019-05-15T23:06:00.769Z,16.07
2019-05-15T23:12:03.275Z,14.93
2019-05-15T23:18:08.553Z,16.60
2019-05-15T23:24:10.800Z,15.58
2019-05-15T23:30:12.955Z,14.75
2019-05-15T23:36:15.319Z,15.68
2019-05-15T23:42:18.791Z,13.75
2019-05-15T23:48:20.931Z,16.60
2019-05-15T23:54:23.191Z,16.57
